Time;durP1;ratioP1;P1;durP2;ratioP2;P2;SDS_P1;SDS_P2;PMS_P1;PMS_P2;Temp;Humidity;BMP_temperature;BMP_pressure;BME280_temperature;BME280_humidity;BME280_pressure;Samples;Min_cycle;Max_cycle;Signal;HPM_P1;HPM_P2
2022/05/06 00:00:07;;;;;;;4.53;2.63;;;;;;;12.08;100.00;99736.69;5000906;28;20189;-80
2022/05/06 00:02:35;;;;;;;4.00;2.70;;;;;;;12.07;100.00;99738.50;5018563;28;20195;-80
2022/05/06 00:05:06;;;;;;;5.63;2.67;;;;;;;11.96;100.00;99736.47;5017218;28;20221;-79
2022/05/06 00:07:34;;;;;;;4.40;3.03;;;;;;;12.01;100.00;99736.19;5047503;28;20201;-79
2022/05/06 00:10:04;;;;;;;4.03;2.70;;;;;;;12.00;100.00;99738.00;5059397;28;20219;-79
2022/05/06 00:12:34;;;;;;;4.60;2.93;;;;;;;11.99;100.00;99735.44;5095732;28;20196;-80
2022/05/06 00:15:06;;;;;;;5.33;2.30;;;;;;;12.07;100.00;99730.53;5100289;27;20203;-81
2022/05/06 00:17:36;;;;;;;6.17;2.80;;;;;;;11.98;100.00;99731.09;5095672;28;20253;-80
2022/05/06 00:20:07;;;;;;;3.73;2.80;;;;;;;11.84;100.00;99726.59;5093438;28;20204;-80
2022/05/06 00:22:37;;;;;;;3.83;2.50;;;;;;;11.72;100.00;99736.13;5090184;28;20694;-80
2022/05/06 00:25:09;;;;;;;4.07;2.77;;;;;;;11.73;100.00;99740.47;5090571;28;20196;-80
2022/05/06 00:27:41;;;;;;;4.57;2.97;;;;;;;11.82;100.00;99740.91;5051457;28;20692;-80
2022/05/06 00:30:16;;;;;;;7.73;3.03;;;;;;;11.76;100.00;99750.03;5051223;28;20194;-80
2022/05/06 00:32:45;;;;;;;3.53;2.60;;;;;;;11.61;100.00;99746.50;5048339;28;20200;-80
2022/05/06 00:35:16;;;;;;;4.63;2.70;;;;;;;11.58;100.00;99744.06;5041195;28;20704;-80
2022/05/06 00:37:46;;;;;;;4.80;2.93;;;;;;;11.33;100.00;99746.41;5053448;28;20247;-80
2022/05/06 00:40:16;;;;;;;6.93;3.10;;;;;;;11.38;100.00;99746.97;5052019;28;20203;-79
2022/05/06 00:42:44;;;;;;;6.63;2.90;;;;;;;11.26;100.00;99756.50;4967328;28;20207;-80
2022/05/06 00:45:14;;;;;;;5.40;2.90;;;;;;;11.18;100.00;99761.38;4977136;28;20241;-80
2022/05/06 00:47:43;;;;;;;5.23;2.90;;;;;;;11.25;100.00;99762.75;5006512;28;20202;-80
2022/05/06 00:50:13;;;;;;;5.07;3.00;;;;;;;11.26;100.00;99755.66;5026902;28;20210;-80
2022/05/06 00:52:42;;;;;;;5.80;2.80;;;;;;;11.38;100.00;99753.13;5030541;28;20244;-80
2022/05/06 00:55:10;;;;;;;4.57;2.40;;;;;;;11.05;100.00;99760.38;5030385;28;20201;-80
2022/05/06 00:57:40;;;;;;;5.17;2.73;;;;;;;11.12;100.00;99756.44;5023161;28;20661;-80
2022/05/06 01:00:20;;;;;;;5.37;2.80;;;;;;;10.95;100.00;99754.75;5037769;28;20215;-80
2022/05/06 01:02:49;;;;;;;3.80;2.53;;;;;;;11.02;100.00;99753.47;5029540;28;20197;-80
2022/05/06 01:05:19;;;;;;;6.63;3.00;;;;;;;11.03;100.00;99754.31;5029543;28;20193;-80
2022/05/06 01:07:52;;;;;;;5.20;2.93;;;;;;;10.81;100.00;99758.16;5022861;28;20217;-80
2022/05/06 01:10:30;;;;;;;3.90;3.23;;;;;;;10.73;100.00;99757.72;5030256;28;20280;-80
2022/05/06 01:12:59;;;;;;;5.73;3.20;;;;;;;10.65;100.00;99749.34;5025838;28;20212;-80
2022/05/06 01:15:30;;;;;;;6.33;2.70;;;;;;;10.67;100.00;99758.06;5009408;28;20289;-80
2022/05/06 01:17:59;;;;;;;5.23;2.97;;;;;;;10.69;100.00;99756.16;5008167;28;20277;-79
2022/05/06 01:20:28;;;;;;;7.27;3.50;;;;;;;10.60;100.00;99754.88;5032993;28;20257;-80
2022/05/06 01:22:59;;;;;;;5.97;2.80;;;;;;;10.69;100.00;99756.16;5094390;28;20215;-79
2022/05/06 01:25:28;;;;;;;5.70;3.30;;;;;;;10.70;100.00;99755.22;5087347;28;20659;-80
2022/05/06 01:28:01;;;;;;;4.60;3.23;;;;;;;10.46;100.00;99756.59;5107643;28;20195;-80
2022/05/06 01:30:34;;;;;;;8.10;3.67;;;;;;;10.57;100.00;99764.78;5110371;28;20237;-80
2022/05/06 01:33:06;;;;;;;4.50;3.10;;;;;;;10.59;100.00;99755.81;5103853;28;20217;-80
2022/05/06 01:35:41;;;;;;;6.70;3.53;;;;;;;10.56;100.00;99749.84;5111507;28;20245;-80
2022/05/06 01:38:17;;;;;;;7.13;3.10;;;;;;;10.35;100.00;99753.66;5102233;28;20205;-80
2022/05/06 01:40:50;;;;;;;5.50;3.67;;;;;;;10.24;100.00;99762.19;5105834;28;20218;-80
2022/05/06 01:43:22;;;;;;;6.50;3.60;;;;;;;10.23;100.00;99757.78;5044087;28;20624;-80
2022/05/06 01:45:54;;;;;;;6.47;3.50;;;;;;;10.25;100.00;99759.44;4992731;28;20202;-80
2022/05/06 01:48:25;;;;;;;4.30;3.60;;;;;;;10.22;100.00;99759.59;4967942;28;20196;-81
2022/05/06 01:50:55;;;;;;;4.53;3.33;;;;;;;10.19;100.00;99756.22;4967879;28;20192;-80
2022/05/06 01:53:27;;;;;;;5.93;3.30;;;;;;;10.24;100.00;99765.69;4968841;28;20200;-80
2022/05/06 01:55:58;;;;;;;4.53;3.13;;;;;;;10.10;100.00;99765.50;4968914;28;20277;-80
2022/05/06 01:58:27;;;;;;;5.60;3.07;;;;;;;10.15;100.00;99762.63;4894253;29;20655;-84
2022/05/06 02:00:55;;;;;;;4.60;3.03;;;;;;;10.14;100.00;99764.41;4912256;29;20303;-80
2022/05/06 02:06:12;;;;;;;7.20;3.37;;;;;;;10.09;100.00;99763.78;5016958;28;20196;-80
2022/05/06 02:08:48;;;;;;;5.53;3.40;;;;;;;10.04;100.00;99764.03;5025930;28;20296;-80
2022/05/06 02:11:18;;;;;;;5.13;3.40;;;;;;;10.07;100.00;99767.47;5011843;28;20231;-80
2022/05/06 02:13:47;;;;;;;7.37;3.80;;;;;;;10.01;100.00;99760.69;5006854;28;20298;-80
2022/05/06 02:16:16;;;;;;;6.43;3.23;;;;;;;9.96;100.00;99766.22;5026839;28;20211;-80
2022/05/06 02:18:44;;;;;;;6.67;3.40;;;;;;;9.98;100.00;99764.34;5082747;28;20227;-80
2022/05/06 02:21:13;;;;;;;5.80;3.00;;;;;;;10.01;100.00;99774.78;5083984;28;20310;-80
2022/05/06 02:23:45;;;;;;;5.03;3.40;;;;;;;10.00;100.00;99770.41;5054426;28;20216;-80
2022/05/06 02:26:13;;;;;;;5.33;3.57;;;;;;;10.06;100.00;99769.25;5080874;28;20206;-80
2022/05/06 02:28:42;;;;;;;5.93;3.90;;;;;;;10.14;100.00;99766.22;5086336;28;20196;-80
2022/05/06 02:33:57;;;;;;;6.27;3.83;;;;;;;10.04;100.00;99773.78;5095552;27;20226;-80
2022/05/06 02:36:26;;;;;;;8.70;3.80;;;;;;;10.09;100.00;99769.09;5089810;28;20204;-81
2022/05/06 02:38:56;;;;;;;5.17;3.33;;;;;;;10.14;100.00;99760.91;5084192;28;20203;-80
2022/05/06 02:41:25;;;;;;;5.13;3.60;;;;;;;10.12;100.00;99762.75;5088063;28;20274;-80
2022/05/06 02:43:53;;;;;;;6.33;3.40;;;;;;;10.13;100.00;99765.31;5031563;28;20209;-80
2022/05/06 02:46:22;;;;;;;5.87;3.30;;;;;;;10.11;100.00;99769.00;5027888;28;20197;-80
2022/05/06 02:48:50;;;;;;;4.70;3.27;;;;;;;10.01;100.00;99766.84;5029120;28;20570;-80
2022/05/06 02:51:20;;;;;;;7.10;3.40;;;;;;;10.09;100.00;99766.44;5022500;28;20205;-80
2022/05/06 02:53:49;;;;;;;6.57;3.20;;;;;;;10.12;100.00;99768.06;5028996;28;20194;-80
2022/05/06 02:56:21;;;;;;;4.60;2.90;;;;;;;9.97;100.00;99767.09;5016399;28;20276;-79
2022/05/06 02:58:52;;;;;;;7.93;3.10;;;;;;;9.98;100.00;99772.28;5043763;28;20197;-80
2022/05/06 03:01:24;;;;;;;6.73;2.97;;;;;;;9.94;100.00;99770.75;5058418;27;20211;-80
2022/05/06 03:03:53;;;;;;;5.33;3.20;;;;;;;10.11;100.00;99764.56;5126534;28;20198;-80
2022/05/06 03:06:22;;;;;;;5.43;3.30;;;;;;;9.97;100.00;99769.72;5128201;27;20202;-80
2022/05/06 03:08:52;;;;;;;4.47;2.93;;;;;;;9.96;100.00;99768.03;5127388;27;20205;-79
2022/05/06 03:11:22;;;;;;;4.87;3.23;;;;;;;9.94;100.00;99768.09;5128297;27;20193;-79
2022/05/06 03:13:51;;;;;;;6.13;3.27;;;;;;;9.90;100.00;99771.81;5126672;27;20202;-80
2022/05/06 03:16:20;;;;;;;7.67;3.13;;;;;;;10.04;100.00;99769.34;5137539;27;20191;-80
2022/05/06 03:18:49;;;;;;;5.20;3.30;;;;;;;9.98;100.00;99764.34;5068779;28;20299;-80
2022/05/06 03:21:19;;;;;;;4.57;3.27;;;;;;;9.89;100.00;99766.63;5006599;28;20221;-80
2022/05/06 03:23:51;;;;;;;4.77;3.37;;;;;;;9.90;100.00;99766.53;5045945;28;20221;-80
2022/05/06 03:26:24;;;;;;;4.90;3.20;;;;;;;9.91;100.00;99762.94;5052704;28;20209;-79
2022/05/06 03:28:57;;;;;;;7.70;3.77;;;;;;;9.89;100.00;99762.19;5049060;28;20280;-80
2022/05/06 03:31:26;;;;;;;5.77;3.20;;;;;;;9.85;100.00;99765.94;5051884;28;20243;-80
2022/05/06 03:33:59;;;;;;;5.13;3.43;;;;;;;9.79;100.00;99765.38;5048061;28;20208;-79
2022/05/06 03:36:28;;;;;;;4.10;3.30;;;;;;;9.65;100.00;99768.69;5049776;28;20197;-80
2022/05/06 03:38:57;;;;;;;4.33;3.30;;;;;;;9.63;100.00;99765.28;5050925;28;20202;-80
2022/05/06 03:41:27;;;;;;;6.60;3.40;;;;;;;9.57;100.00;99761.19;5049384;28;20216;-79
2022/05/06 03:43:56;;;;;;;4.80;3.60;;;;;;;9.63;100.00;99767.94;5081122;28;20686;-80
2022/05/06 03:46:25;;;;;;;6.40;3.30;;;;;;;9.55;100.00;99759.53;5094826;28;20206;-80
2022/05/06 03:48:55;;;;;;;5.13;3.80;;;;;;;9.48;100.00;99766.94;5093164;28;20202;-80
2022/05/06 03:51:22;;;;;;;6.07;3.73;;;;;;;9.64;100.00;99770.50;5095380;28;20269;-80
2022/05/06 03:53:52;;;;;;;6.17;3.70;;;;;;;9.64;100.00;99764.34;5092446;28;20206;-80
2022/05/06 03:56:23;;;;;;;5.70;3.47;;;;;;;9.58;100.00;99765.53;5032252;28;20201;-80
2022/05/06 03:58:53;;;;;;;5.30;3.50;;;;;;;9.68;100.00;99773.84;5029241;28;20425;-80
2022/05/06 04:01:25;;;;;;;7.47;3.30;;;;;;;9.51;100.00;99773.84;4990996;28;20222;-80
2022/05/06 04:03:54;;;;;;;6.40;3.60;;;;;;;9.48;100.00;99768.72;4994585;28;20191;-79
2022/05/06 04:06:22;;;;;;;6.43;3.53;;;;;;;9.48;100.00;99772.22;4914617;29;20225;-80
2022/05/06 04:08:51;;;;;;;3.90;3.20;;;;;;;9.51;100.00;99772.06;4913653;29;20206;-80
2022/05/06 04:11:20;;;;;;;5.37;3.50;;;;;;;9.42;100.00;99775.16;4917774;29;20208;-80
2022/05/06 04:13:49;;;;;;;3.80;3.20;;;;;;;9.48;100.00;99774.00;4928531;28;20196;-80
2022/05/06 04:16:18;;;;;;;5.77;3.53;;;;;;;9.49;100.00;99776.56;4972888;28;20207;-80
2022/05/06 04:18:47;;;;;;;6.37;3.50;;;;;;;9.39;100.00;99783.25;4979715;28;20190;-80
2022/05/06 04:24:04;;;;;;;5.23;3.80;;;;;;;9.37;100.00;99778.03;5052612;28;20223;-80
2022/05/06 04:26:35;;;;;;;5.40;3.93;;;;;;;9.37;100.00;99782.47;5060868;28;20188;-80
2022/05/06 04:29:04;;;;;;;5.83;4.60;;;;;;;9.37;100.00;99774.53;5095603;28;20192;-80
2022/05/06 04:31:35;;;;;;;6.77;5.00;;;;;;;9.42;100.00;99783.09;5093107;28;20279;-80
2022/05/06 04:34:03;;;;;;;10.67;5.63;;;;;;;9.35;100.00;99795.72;5095577;28;20191;-80
2022/05/06 04:36:31;;;;;;;9.20;5.97;;;;;;;9.56;100.00;99798.28;5087613;28;20203;-80
2022/05/06 04:39:01;;;;;;;6.53;4.93;;;;;;;9.49;100.00;99808.28;5092972;28;20200;-80
2022/05/06 04:41:30;;;;;;;7.10;4.00;;;;;;;9.56;100.00;99801.78;5092626;28;20243;-80
2022/05/06 04:43:59;;;;;;;6.10;4.10;;;;;;;9.67;100.00;99812.69;5051515;28;20236;-80
2022/05/06 04:46:29;;;;;;;5.33;3.83;;;;;;;9.76;100.00;99803.44;5044797;28;20212;-80
2022/05/06 04:48:59;;;;;;;5.60;3.80;;;;;;;9.87;100.00;99803.75;5044301;28;20319;-80
2022/05/06 04:51:27;;;;;;;5.00;3.53;;;;;;;10.00;100.00;99806.59;5042009;28;20212;-80
2022/05/06 04:53:56;;;;;;;6.43;3.40;;;;;;;9.95;100.00;99812.16;5048129;28;20300;-80
2022/05/06 04:56:26;;;;;;;5.60;3.70;;;;;;;9.94;100.00;99812.19;5048567;28;20197;-80
2022/05/06 04:58:55;;;;;;;5.43;3.27;;;;;;;10.04;100.00;99816.97;5046543;28;20216;-80
2022/05/06 05:01:24;;;;;;;7.20;3.57;;;;;;;9.92;100.00;99812.28;5049929;28;20221;-80
2022/05/06 05:03:59;;;;;;;5.00;3.80;;;;;;;10.07;100.00;99817.75;5046155;28;20215;-80
2022/05/06 05:06:35;;;;;;;5.63;3.47;;;;;;;10.06;100.00;99826.63;5047640;28;20280;-80
2022/05/06 05:09:05;;;;;;;7.60;3.80;;;;;;;10.11;100.00;99825.44;5079433;28;20195;-80
2022/05/06 05:11:34;;;;;;;5.83;4.00;;;;;;;10.10;100.00;99831.66;5090424;28;20199;-80
2022/05/06 05:14:04;;;;;;;7.23;3.70;;;;;;;10.07;100.00;99834.47;5049819;28;20200;-80
2022/05/06 05:16:34;;;;;;;7.97;4.30;;;;;;;10.03;100.00;99835.56;5047460;28;20189;-80
2022/05/06 05:19:03;;;;;;;7.00;3.87;;;;;;;10.13;100.00;99830.66;5046002;28;20223;-81
2022/05/06 05:21:34;;;;;;;5.37;3.97;;;;;;;10.10;100.00;99831.66;5046964;28;20240;-80
2022/05/06 05:24:03;;;;;;;5.63;3.67;;;;;;;10.19;100.00;99838.28;5046151;28;20228;-80
2022/05/06 05:26:32;;;;;;;5.80;3.93;;;;;;;10.18;100.00;99839.22;4970094;28;20203;-80
2022/05/06 05:29:00;;;;;;;4.40;3.80;;;;;;;10.30;100.00;99834.19;4968831;28;20207;-80
2022/05/06 05:31:29;;;;;;;5.53;3.83;;;;;;;10.28;100.00;99837.84;4977985;28;20194;-80
2022/05/06 05:33:58;;;;;;;5.07;4.30;;;;;;;10.44;100.00;99840.56;5025474;28;20193;-80
2022/05/06 05:36:26;;;;;;;4.83;4.17;;;;;;;10.34;100.00;99834.03;5028334;28;20216;-80
2022/05/06 05:39:01;;;;;;;9.07;4.33;;;;;;;10.50;100.00;99849.03;5029605;28;20664;-80
2022/05/06 05:41:29;;;;;;;6.90;4.47;;;;;;;10.61;100.00;99840.50;5026105;28;20307;-80
2022/05/06 05:49:34;;;;;;;6.53;4.13;;;;;;;11.00;100.00;99855.19;5031222;28;20194;-80
2022/05/06 05:52:08;;;;;;;6.57;3.83;;;;;;;10.95;100.00;99850.16;5037015;28;20208;-81
2022/05/06 05:54:40;;;;;;;6.30;3.73;;;;;;;11.04;100.00;99851.47;5046262;28;20283;-81
2022/05/06 05:57:13;;;;;;;7.33;3.77;;;;;;;10.81;100.00;99845.63;5048220;28;20308;-80
2022/05/06 05:59:47;;;;;;;8.17;4.17;;;;;;;10.91;100.00;99850.44;5047594;28;20293;-80
2022/05/06 06:02:20;;;;;;;8.50;4.50;;;;;;;11.10;100.00;99857.28;5044544;28;20217;-81
2022/05/06 06:04:52;;;;;;;12.17;4.33;;;;;;;11.30;100.00;99855.34;5049592;28;20197;-80
2022/05/06 06:07:20;;;;;;;7.87;4.47;;;;;;;11.45;100.00;99852.66;5043495;28;20190;-80
2022/05/06 06:09:50;;;;;;;6.43;4.57;;;;;;;11.61;100.00;99855.31;5044524;28;20243;-81
2022/05/06 06:12:19;;;;;;;6.07;3.93;;;;;;;11.70;100.00;99853.94;5014577;28;20216;-80
2022/05/06 06:14:48;;;;;;;7.83;4.40;;;;;;;11.79;100.00;99858.72;5051717;28;20276;-80
2022/05/06 06:17:18;;;;;;;4.80;4.03;;;;;;;11.91;100.00;99855.38;4992351;28;20199;-80
2022/05/06 06:19:48;;;;;;;6.37;3.90;;;;;;;11.92;100.00;99858.88;4986778;28;20233;-80
2022/05/06 06:22:20;;;;;;;7.53;4.40;;;;;;;12.10;100.00;99857.78;4994793;28;20221;-81
2022/05/06 06:24:48;;;;;;;5.20;4.17;;;;;;;12.18;100.00;99852.91;5026829;28;20201;-81
2022/05/06 06:27:19;;;;;;;6.13;3.87;;;;;;;12.13;100.00;99864.72;5024785;28;20328;-80
2022/05/06 06:29:52;;;;;;;6.60;4.13;;;;;;;12.26;100.00;99861.25;5027223;28;20288;-80
2022/05/06 06:32:22;;;;;;;7.30;3.73;;;;;;;12.26;100.00;99861.25;5029185;28;20228;-80
2022/05/06 06:34:54;;;;;;;7.63;4.03;;;;;;;12.39;100.00;99853.41;4997908;28;20204;-80
2022/05/06 06:37:25;;;;;;;6.23;3.20;;;;;;;12.65;100.00;99850.97;4930408;29;20210;-81
2022/05/06 06:39:56;;;;;;;5.97;3.20;;;;;;;12.61;100.00;99853.81;4929109;29;20715;-81
2022/05/06 06:42:26;;;;;;;9.67;3.00;;;;;;;12.74;100.00;99848.59;4926850;29;20217;-81
2022/05/06 06:44:58;;;;;;;4.23;3.17;;;;;;;12.96;100.00;99848.13;4927157;29;20202;-81
2022/05/06 06:47:26;;;;;;;4.47;3.27;;;;;;;13.06;100.00;99849.25;4892405;29;20225;-80
2022/05/06 06:49:55;;;;;;;5.23;3.47;;;;;;;13.11;100.00;99855.09;4947970;28;20208;-81
2022/05/06 06:52:24;;;;;;;3.93;3.50;;;;;;;13.14;100.00;99862.91;4963217;28;20380;-81
2022/05/06 06:54:56;;;;;;;4.17;3.20;;;;;;;13.36;100.00;99861.56;4993374;28;20189;-81
2022/05/06 06:57:28;;;;;;;8.80;3.40;;;;;;;13.49;100.00;99861.63;5066333;28;20200;-81
2022/05/06 06:59:59;;;;;;;5.27;3.10;;;;;;;13.56;100.00;99854.97;5061955;28;20200;-81
2022/05/06 07:02:29;;;;;;;5.03;3.57;;;;;;;13.43;100.00;99858.44;5066616;28;20219;-81
2022/05/06 07:04:58;;;;;;;5.97;3.13;;;;;;;13.73;100.00;99854.72;4989177;28;20207;-81
2022/05/06 07:13:21;;;;;;;5.63;3.07;;;;;;;14.01;100.00;99851.09;4980902;28;20210;-81
2022/05/06 07:15:51;;;;;;;6.60;3.13;;;;;;;13.74;100.00;99851.94;4912639;29;20205;-81
2022/05/06 07:18:19;;;;;;;5.23;2.83;;;;;;;14.12;100.00;99853.03;4909594;29;20257;-81
2022/05/06 07:20:54;;;;;;;4.17;2.97;;;;;;;14.21;100.00;99847.91;4891054;29;20320;-81
2022/05/06 07:23:24;;;;;;;5.37;2.73;;;;;;;14.46;100.00;99855.09;4875124;29;20318;-81
2022/05/06 07:25:56;;;;;;;5.30;2.53;;;;;;;14.61;100.00;99847.88;4853562;29;20759;-81
2022/05/06 07:28:27;;;;;;;5.30;2.57;;;;;;;14.77;100.00;99845.84;4856154;29;20287;-80
2022/05/06 07:30:58;;;;;;;3.23;2.17;;;;;;;14.98;100.00;99854.16;4853946;29;20214;-81
2022/05/06 07:33:28;;;;;;;6.43;2.77;;;;;;;15.20;100.00;99842.78;4831567;29;20278;-82
2022/05/06 07:35:59;;;;;;;4.07;2.37;;;;;;;15.13;100.00;99852.19;4877746;29;20214;-81
2022/05/06 07:38:28;;;;;;;5.53;2.53;;;;;;;15.22;100.00;99850.69;4887129;29;20280;-81
2022/05/06 07:40:59;;;;;;;5.10;2.20;;;;;;;15.26;100.00;99842.34;4913323;29;20285;-81
2022/05/06 07:43:31;;;;;;;4.33;2.17;;;;;;;15.37;100.00;99845.09;4914078;29;20724;-82
2022/05/06 07:45:59;;;;;;;6.23;2.30;;;;;;;15.40;100.00;99850.19;4912439;29;20205;-81
2022/05/06 07:48:28;;;;;;;3.33;2.20;;;;;;;15.64;100.00;99838.72;4914414;29;20216;-81
2022/05/06 07:51:05;;;;;;;3.23;1.90;;;;;;;15.91;100.00;99844.66;4981352;28;20211;-81
2022/05/06 07:53:38;;;;;;;5.77;2.20;;;;;;;15.81;100.00;99843.66;5050353;28;20208;-80
2022/05/06 07:56:08;;;;;;;3.80;1.90;;;;;;;15.95;100.00;99846.16;5015042;28;20340;-81
2022/05/06 07:58:40;;;;;;;5.97;2.07;;;;;;;15.93;100.00;99848.09;5051412;28;20201;-80
2022/05/06 08:01:10;;;;;;;6.50;2.23;;;;;;;16.16;100.00;99848.16;5058409;28;20208;-80
2022/05/06 08:06:26;;;;;;;3.60;1.80;;;;;;;16.36;100.00;99854.66;5052238;28;20193;-81
2022/05/06 08:08:55;;;;;;;6.00;2.37;;;;;;;16.48;100.00;99845.69;5047353;28;20204;-80
2022/05/06 08:11:25;;;;;;;3.30;1.93;;;;;;;16.53;100.00;99848.88;5049075;28;20197;-80
2022/05/06 08:13:55;;;;;;;8.20;2.03;;;;;;;16.77;100.00;99844.31;5042964;28;20199;-80
2022/05/06 08:16:25;;;;;;;3.30;1.80;;;;;;;16.87;98.52;99855.97;5046140;28;20296;-81
2022/05/06 08:18:54;;;;;;;3.43;2.20;;;;;;;16.85;98.09;99844.56;5049696;28;20197;-81
2022/05/06 08:21:24;;;;;;;2.73;1.80;;;;;;;16.92;96.06;99847.59;5047759;28;20204;-81
2022/05/06 08:23:54;;;;;;;3.80;1.87;;;;;;;17.20;92.81;99853.44;5058917;28;20722;-81
2022/05/06 08:26:25;;;;;;;5.17;1.90;;;;;;;17.25;93.03;99852.06;5094705;28;20206;-81
2022/05/06 08:28:56;;;;;;;4.37;1.87;;;;;;;17.22;90.69;99851.47;5095972;28;20188;-81
2022/05/06 08:31:27;;;;;;;3.50;1.70;;;;;;;17.25;91.79;99852.06;5093498;28;20204;-80
2022/05/06 08:34:00;;;;;;;3.00;1.93;;;;;;;17.38;90.61;99852.81;5094694;28;20196;-81
2022/05/06 08:36:30;;;;;;;5.10;2.50;;;;;;;17.45;92.92;99848.63;5088783;28;20199;-80
2022/05/06 08:38:58;;;;;;;8.30;1.90;;;;;;;17.65;93.29;99843.47;5097440;27;20196;-81
2022/05/06 08:41:31;;;;;;;4.70;3.33;;;;;;;17.58;89.69;99844.97;5093514;28;20658;-81
2022/05/06 08:50:50;;;;;;;2.57;1.80;;;;;;;17.77;84.52;99845.19;5074581;28;20299;-81
2022/05/06 08:52:35;;;;;;;4.53;1.77;;;;;;;18.03;86.48;99843.00;5095245;28;20270;-82
2022/05/06 08:55:08;;;;;;;4.10;2.00;;;;;;;17.88;86.30;99838.94;5057219;28;20188;-82
2022/05/06 08:57:37;;;;;;;3.63;2.00;;;;;;;17.95;81.96;99842.78;5094966;28;20187;-81
2022/05/06 09:00:09;;;;;;;3.23;1.70;;;;;;;18.42;83.11;99841.44;5048453;28;20185;-81
2022/05/06 09:02:39;;;;;;;2.60;1.80;;;;;;;18.45;79.32;99851.94;5036323;28;20205;-81
2022/05/06 09:05:19;;;;;;;6.13;1.80;;;;;;;18.52;74.72;99844.19;5041422;28;20229;-82
2022/05/06 09:07:58;;;;;;;3.90;1.90;;;;;;;18.83;74.85;99853.19;5052604;28;20197;-81
2022/05/06 09:10:27;;;;;;;3.47;1.70;;;;;;;18.52;74.59;99850.41;5048577;28;20203;-81
2022/05/06 09:12:57;;;;;;;3.30;1.50;;;;;;;18.72;73.19;99854.13;5052430;28;20208;-81
2022/05/06 09:18:19;;;;;;;3.00;1.60;;;;;;;18.77;71.84;99835.75;5071689;28;20206;-81
2022/05/06 09:20:54;;;;;;;2.97;1.50;;;;;;;18.82;73.32;99836.22;5090790;28;20192;-81
2022/05/06 09:23:25;;;;;;;4.67;2.13;;;;;;;18.71;72.46;99835.44;5093769;28;20250;-81
2022/05/06 09:25:54;;;;;;;2.00;1.60;;;;;;;19.11;70.79;99827.44;5094539;28;20188;-80
2022/05/06 09:28:25;;;;;;;5.23;1.90;;;;;;;19.16;71.61;99831.41;5094625;28;20202;-81
2022/05/06 09:31:01;;;;;;;4.03;1.60;;;;;;;19.21;70.36;99827.47;5091913;28;20200;-81
2022/05/06 09:33:31;;;;;;;4.47;1.77;;;;;;;19.17;74.07;99827.72;5091459;28;20196;-81
2022/05/06 09:36:00;;;;;;;3.60;1.53;;;;;;;19.48;68.62;99830.34;5093263;28;20252;-82
2022/05/06 09:38:29;;;;;;;4.53;1.70;;;;;;;19.69;63.39;99833.81;5093208;28;20196;-81
2022/05/06 09:40:58;;;;;;;2.53;1.60;;;;;;;20.12;60.38;99839.78;5090723;28;20196;-81
2022/05/06 09:43:30;;;;;;;4.87;2.20;;;;;;;20.20;59.13;99824.63;5088198;28;20208;-81
2022/05/06 09:46:00;;;;;;;4.73;1.80;;;;;;;20.22;59.47;99837.94;5093250;28;20211;-81
2022/05/06 09:48:29;;;;;;;2.80;1.70;;;;;;;20.37;59.79;99839.19;5088951;28;20196;-82
2022/05/06 09:51:00;;;;;;;5.03;1.80;;;;;;;19.72;62.26;99830.84;5091394;28;20192;-82
2022/05/06 09:53:37;;;;;;;3.77;2.03;;;;;;;19.73;63.04;99837.06;5084653;28;20196;-81
2022/05/06 09:56:10;;;;;;;3.50;1.70;;;;;;;20.18;65.01;99832.00;5083865;28;20252;-82
2022/05/06 09:58:41;;;;;;;2.43;1.80;;;;;;;19.98;64.73;99831.16;5083114;28;20215;-82
2022/05/06 10:01:14;;;;;;;6.07;1.90;;;;;;;20.25;63.07;99827.72;5090078;28;20191;-81
2022/05/06 10:03:44;;;;;;;3.03;1.90;;;;;;;20.35;65.99;99824.16;5082751;28;20215;-81
2022/05/06 10:06:25;;;;;;;3.33;1.73;;;;;;;20.70;61.51;99826.25;5084157;28;20203;-82
2022/05/06 10:09:00;;;;;;;3.33;1.50;;;;;;;20.51;59.52;99828.00;5089329;28;20206;-82
2022/05/06 10:11:30;;;;;;;2.83;1.60;;;;;;;20.82;57.61;99828.59;5083554;28;20673;-81
2022/05/06 10:14:03;;;;;;;4.13;1.70;;;;;;;20.98;55.51;99817.22;5039736;28;20196;-81
2022/05/06 10:16:38;;;;;;;3.57;1.70;;;;;;;20.78;54.90;99827.22;5014993;28;20221;-81
2022/05/06 10:19:25;;;;;;;4.20;1.53;;;;;;;21.15;54.72;99829.91;4990845;28;20208;-81
2022/05/06 10:21:55;;;;;;;5.77;2.00;;;;;;;21.26;56.48;99828.88;5029036;28;20194;-82
2022/05/06 10:24:23;;;;;;;4.33;2.20;;;;;;;21.23;58.73;99828.28;5025239;28;20221;-81
2022/05/06 10:26:52;;;;;;;5.50;1.73;;;;;;;21.11;64.74;99815.03;5025011;28;20194;-84
2022/05/06 10:33:01;;;;;;;4.90;2.03;;;;;;;19.98;62.24;99828.47;5031076;28;20208;-80
2022/05/06 10:35:43;;;;;;;3.70;2.15;;;;;;;19.82;64.84;99825.47;5079429;28;20282;-80
2022/05/06 10:38:26;;;;;;;4.97;2.70;;;;;;;20.41;68.14;99824.44;5091928;28;20200;-80
2022/05/06 10:41:02;;;;;;;2.97;1.90;;;;;;;20.13;67.54;99812.72;5093643;28;20210;-82
2022/05/06 10:43:52;;;;;;;3.53;1.88;;;;;;;20.29;68.35;99818.38;5088999;28;20248;-80
2022/05/06 10:46:34;;;;;;;4.78;1.95;;;;;;;20.22;65.37;99802.94;5088970;28;20207;-82
2022/05/06 10:49:50;;;;;;;4.53;1.80;;;;;;;19.82;62.34;99814.72;5093234;28;20242;-80
2022/05/06 10:52:44;;;;;;;3.23;1.47;;;;;;;20.10;66.31;99806.78;5093193;28;20187;-80
2022/05/06 10:55:18;;;;;;;5.00;1.70;;;;;;;19.71;69.55;99812.19;5093203;28;20249;-82
2022/05/06 10:57:55;;;;;;;4.93;1.73;;;;;;;19.88;64.34;99813.28;5093294;28;20187;-80
2022/05/06 11:00:27;;;;;;;2.97;1.47;;;;;;;20.83;56.24;99808.75;5092841;28;20214;-80
2022/05/06 11:02:59;;;;;;;2.07;1.20;;;;;;;21.61;55.00;99794.88;5087770;28;20278;-80
2022/05/06 11:05:29;;;;;;;3.33;1.37;;;;;;;21.80;49.96;99791.19;5091983;28;20211;-82
2022/05/06 11:08:05;;;;;;;3.93;1.20;;;;;;;21.90;50.07;99787.41;5088272;28;20183;-80
2022/05/06 11:10:35;;;;;;;4.13;1.65;;;;;;;22.17;46.98;99788.34;5090724;28;20191;-80
2022/05/06 11:13:25;;;;;;;1.98;1.10;;;;;;;22.58;47.19;99794.84;5093741;28;20206;-82
2022/05/06 11:15:55;;;;;;;4.07;1.40;;;;;;;22.59;46.48;99793.03;5088775;28;20191;-83
2022/05/06 11:18:24;;;;;;;1.73;0.93;;;;;;;23.28;45.64;99781.22;5088090;28;20241;-80
2022/05/06 11:20:55;;;;;;;2.63;1.17;;;;;;;23.50;46.42;99779.75;5092425;28;20210;-79
2022/05/06 11:23:30;;;;;;;2.50;1.13;;;;;;;23.77;45.56;99774.06;5095087;28;20228;-80
2022/05/06 11:26:00;;;;;;;2.40;1.48;;;;;;;23.64;44.65;99771.00;5091943;28;20243;-80
2022/05/06 11:28:32;;;;;;;2.90;1.30;;;;;;;23.79;43.26;99772.03;5088136;28;20339;-80
2022/05/06 11:31:02;;;;;;;2.35;1.38;;;;;;;23.70;41.19;99773.91;5027048;28;20199;-80
2022/05/06 11:33:31;;;;;;;2.92;1.20;;;;;;;23.29;40.56;99775.66;5031826;28;20201;-83
2022/05/06 11:36:03;;;;;;;3.38;1.13;;;;;;;23.22;44.16;99781.88;5030914;28;20271;-80
2022/05/06 11:38:36;;;;;;;1.73;1.15;;;;;;;23.62;44.11;99773.88;5032196;28;20267;-80
2022/05/06 11:41:08;;;;;;;2.17;1.10;;;;;;;23.52;45.31;99781.25;5031707;28;20200;-81
2022/05/06 11:43:37;;;;;;;1.65;0.77;;;;;;;23.07;46.76;99777.09;5032092;28;20198;-80
2022/05/06 11:48:52;;;;;;;1.63;1.00;;;;;;;22.60;47.16;99776.66;5058948;28;20207;-81
2022/05/06 11:51:25;;;;;;;1.27;0.80;;;;;;;22.31;49.17;99774.28;5089679;28;20241;-80
2022/05/06 11:53:56;;;;;;;2.95;1.17;;;;;;;21.71;49.72;99764.16;5094677;28;20191;-80
2022/05/06 11:56:27;;;;;;;2.03;1.27;;;;;;;21.75;48.35;99767.41;5096635;28;20207;-80
2022/05/06 11:58:58;;;;;;;2.17;1.10;;;;;;;22.51;47.56;99764.13;5095228;28;20184;-80
2022/05/06 12:01:27;;;;;;;2.80;1.10;;;;;;;22.80;44.83;99766.47;5096568;28;20191;-80
2022/05/06 12:04:01;;;;;;;2.33;1.23;;;;;;;23.51;42.61;99760.66;5092404;28;20192;-80
2022/05/06 12:06:37;;;;;;;3.22;1.35;;;;;;;23.28;42.87;99751.47;5093684;28;20199;-80
2022/05/06 12:09:16;;;;;;;3.05;1.50;;;;;;;23.29;44.92;99756.72;5094896;28;20200;-80
2022/05/06 12:11:46;;;;;;;2.25;1.00;;;;;;;22.40;45.96;99756.31;5092844;28;20199;-80
2022/05/06 12:14:17;;;;;;;4.05;1.40;;;;;;;22.73;48.21;99755.47;5053610;28;20695;-83
2022/05/06 12:16:56;;;;;;;1.85;1.00;;;;;;;22.84;51.99;99751.66;5012286;28;20302;-80
2022/05/06 12:19:34;;;;;;;2.35;1.00;;;;;;;24.16;46.53;99747.19;5010524;28;20206;-80
2022/05/06 12:22:05;;;;;;;1.63;1.20;;;;;;;24.28;41.00;99748.50;5005267;28;20206;-80
2022/05/06 12:24:45;;;;;;;1.23;1.10;;;;;;;24.82;38.44;99745.19;5011487;28;20253;-83